createdAt,value
2023-01-17T00:00:39.966Z,25.23
2023-01-17T00:03:29.371Z,25.25
2023-01-17T00:06:34.950Z,25.29
2023-01-17T00:09:41.027Z,25.21
2023-01-17T00:12:31.152Z,25.12
2023-01-17T00:15:21.018Z,25.16
2023-01-17T00:18:11.033Z,25.14
2023-01-17T00:21:17.238Z,25.16
2023-01-17T00:24:23.992Z,25.15
2023-01-17T00:27:14.381Z,25.10
2023-01-17T00:30:01.836Z,25.11
2023-01-17T00:32:50.189Z,25.08
2023-01-17T00:35:41.785Z,25.16
2023-01-17T00:38:30.847Z,25.20
2023-01-17T00:41:18.617Z,25.18
2023-01-17T00:44:24.734Z,25.13
2023-01-17T00:47:31.068Z,25.14
2023-01-17T00:50:37.457Z,25.10
2023-01-17T00:53:45.262Z,25.12
2023-01-17T00:56:51.637Z,25.20
2023-01-17T00:59:58.679Z,25.14
2023-01-17T01:03:04.891Z,25.17
2023-01-17T01:06:10.963Z,25.07
2023-01-17T01:09:18.699Z,25.05
2023-01-17T01:12:25.091Z,25.07
2023-01-17T01:15:31.168Z,25.05
2023-01-17T01:18:37.403Z,25.01
2023-01-17T01:21:43.789Z,25.01
2023-01-17T01:24:51.375Z,25.06
2023-01-17T01:27:57.487Z,25.15
2023-01-17T01:31:03.666Z,25.12
2023-01-17T01:33:53.750Z,25.16
2023-01-17T01:36:42.480Z,25.14
2023-01-17T01:39:31.092Z,25.17
2023-01-17T01:42:21.144Z,25.09
2023-01-17T01:45:17.833Z,25.16
2023-01-17T01:48:12.770Z,25.17
2023-01-17T01:51:02.028Z,25.11
2023-01-17T01:53:54.507Z,25.17
2023-01-17T01:56:43.595Z,25.20
2023-01-17T01:59:35.182Z,25.13
2023-01-17T02:02:23.822Z,25.22
2023-01-17T02:05:16.191Z,25.17
2023-01-17T02:08:07.750Z,25.18
2023-01-17T02:10:57.828Z,25.17
2023-01-17T02:13:46.631Z,25.10
2023-01-17T02:16:49.303Z,25.06
2023-01-17T02:20:16.954Z,25.18
2023-01-17T02:23:44.119Z,25.19
2023-01-17T02:26:49.728Z,25.14
2023-01-17T02:30:22.272Z,25.15
2023-01-17T02:33:18.946Z,25.20
2023-01-17T02:36:11.119Z,25.11
2023-01-17T02:39:03.613Z,25.27
2023-01-17T02:41:55.515Z,25.21
2023-01-17T02:44:45.665Z,25.17
2023-01-17T02:47:36.296Z,25.14
2023-01-17T02:50:28.410Z,25.18
2023-01-17T02:53:29.610Z,25.22
2023-01-17T02:56:28.239Z,25.13
2023-01-17T02:59:29.355Z,25.06
2023-01-17T03:02:22.592Z,25.21
2023-01-17T03:05:20.384Z,25.09
2023-01-17T03:08:09.560Z,25.09
2023-01-17T03:10:58.961Z,25.04
2023-01-17T03:13:47.619Z,25.02
2023-01-17T03:16:36.596Z,25.00
2023-01-17T03:19:25.315Z,25.00
2023-01-17T03:22:15.317Z,25.01
2023-01-17T03:25:03.966Z,24.97
2023-01-17T03:27:52.604Z,25.06
2023-01-17T03:30:41.297Z,25.09
2023-01-17T03:33:30.228Z,25.09
2023-01-17T03:36:20.306Z,25.09
2023-01-17T03:39:10.600Z,25.02
2023-01-17T03:41:59.323Z,25.08
2023-01-17T03:44:47.903Z,25.13
2023-01-17T03:47:37.080Z,25.17
2023-01-17T03:50:25.922Z,25.16
2023-01-17T03:53:14.543Z,25.18
2023-01-17T03:56:04.698Z,25.20
2023-01-17T03:58:53.647Z,25.30
2023-01-17T04:01:42.525Z,25.22
2023-01-17T04:04:31.259Z,25.22
2023-01-17T04:07:20.499Z,25.22
2023-01-17T04:10:09.671Z,25.27
2023-01-17T04:13:02.457Z,25.25
2023-01-17T04:15:52.328Z,25.27
2023-01-17T04:18:41.044Z,25.23
2023-01-17T04:21:29.919Z,25.32
2023-01-17T04:24:18.550Z,25.23
2023-01-17T04:27:07.360Z,25.12
2023-01-17T04:29:57.299Z,25.10
2023-01-17T04:32:46.440Z,25.12
2023-01-17T04:35:35.064Z,25.11
2023-01-17T04:38:24.348Z,25.11
2023-01-17T04:41:12.978Z,25.12
2023-01-17T04:44:01.912Z,25.11
2023-01-17T04:46:52.066Z,25.04
2023-01-17T04:49:41.975Z,25.08
2023-01-17T04:52:31.447Z,25.16
2023-01-17T04:55:19.999Z,25.21
2023-01-17T04:58:08.617Z,25.03
2023-01-17T05:00:57.222Z,25.12
2023-01-17T05:03:47.369Z,25.13
2023-01-17T05:06:36.065Z,25.23
2023-01-17T05:09:24.833Z,25.15
2023-01-17T05:12:13.441Z,25.15
2023-01-17T05:15:02.069Z,25.17
2023-01-17T05:17:52.142Z,25.10
2023-01-17T05:20:42.185Z,25.12
2023-01-17T05:23:30.836Z,25.16
2023-01-17T05:26:19.396Z,25.28
2023-01-17T05:29:08.149Z,25.36
2023-01-17T05:31:56.782Z,25.46
2023-01-17T05:34:45.393Z,25.39
2023-01-17T05:37:35.405Z,25.46
2023-01-17T05:40:25.772Z,25.44
2023-01-17T05:43:14.426Z,25.35
2023-01-17T05:46:03.010Z,25.37
2023-01-17T05:48:51.692Z,25.30
2023-01-17T05:51:40.327Z,25.28
2023-01-17T05:54:30.296Z,25.21
2023-01-17T05:57:18.938Z,25.17
2023-01-17T06:00:08.802Z,25.08
2023-01-17T06:02:58.558Z,25.12
2023-01-17T06:05:47.472Z,25.11
2023-01-17T06:08:36.176Z,25.22
2023-01-17T06:11:29.388Z,25.23
2023-01-17T06:14:18.889Z,25.32
2023-01-17T06:17:08.667Z,25.35
2023-01-17T06:19:57.444Z,25.40
2023-01-17T06:22:46.234Z,25.44
2023-01-17T06:25:38.616Z,25.50
2023-01-17T06:28:28.790Z,25.58
2023-01-17T06:31:18.258Z,25.49
2023-01-17T06:34:07.077Z,25.58
2023-01-17T06:36:55.681Z,25.57
2023-01-17T06:39:44.259Z,25.40
2023-01-17T06:42:32.873Z,25.27
2023-01-17T06:45:23.150Z,25.17
2023-01-17T06:48:11.948Z,25.14
2023-01-17T06:51:00.623Z,25.12
2023-01-17T06:53:49.410Z,25.13
2023-01-17T06:56:38.359Z,25.16
2023-01-17T06:59:27.085Z,25.11
2023-01-17T07:02:17.106Z,25.06
2023-01-17T07:05:06.149Z,25.11
2023-01-17T07:07:54.771Z,25.14
2023-01-17T07:10:44.455Z,25.12
2023-01-17T07:13:36.477Z,25.23
2023-01-17T07:16:25.236Z,25.07
2023-01-17T07:19:15.606Z,25.07
2023-01-17T07:22:04.313Z,25.21
2023-01-17T07:24:58.694Z,25.20
2023-01-17T07:27:49.499Z,25.23
2023-01-17T07:30:38.150Z,25.27
2023-01-17T07:33:26.968Z,25.24
2023-01-17T07:36:16.980Z,25.28
2023-01-17T07:39:06.445Z,25.27
2023-01-17T07:41:55.204Z,25.21
2023-01-17T07:44:45.015Z,25.16
2023-01-17T07:47:34.075Z,25.10
2023-01-17T07:50:22.732Z,25.16
2023-01-17T07:53:12.848Z,25.15
2023-01-17T07:56:05.356Z,25.11
2023-01-17T07:58:53.884Z,25.06
2023-01-17T08:01:42.628Z,25.07
2023-01-17T08:04:34.725Z,25.15
2023-01-17T08:07:23.395Z,25.26
2023-01-17T08:10:17.890Z,25.33
2023-01-17T08:13:09.582Z,25.30
2023-01-17T08:16:02.251Z,25.39
2023-01-17T08:18:50.881Z,25.31
2023-01-17T08:21:39.610Z,25.31
2023-01-17T08:24:28.319Z,25.36
2023-01-17T08:27:18.260Z,25.46
2023-01-17T08:30:08.532Z,25.46
2023-01-17T08:32:57.415Z,25.49
2023-01-17T08:35:53.380Z,25.42
2023-01-17T08:38:42.117Z,25.55
2023-01-17T08:41:32.246Z,25.51
2023-01-17T08:44:22.462Z,25.53
2023-01-17T08:47:11.392Z,25.55
2023-01-17T08:50:00.327Z,25.52
2023-01-17T08:52:49.534Z,25.59
2023-01-17T08:55:40.884Z,25.46
2023-01-17T08:58:31.303Z,25.50
2023-01-17T09:01:21.504Z,25.52
2023-01-17T09:04:10.449Z,25.56
2023-01-17T09:06:59.179Z,25.69
2023-01-17T09:09:48.407Z,25.64
2023-01-17T09:12:37.482Z,25.73
2023-01-17T09:15:26.156Z,25.81
2023-01-17T09:18:16.103Z,25.86
2023-01-17T09:21:12.107Z,25.92
2023-01-17T09:24:01.602Z,25.97
2023-01-17T09:26:50.377Z,26.07
2023-01-17T09:29:39.123Z,26.08
2023-01-17T09:32:27.880Z,26.17
2023-01-17T09:35:18.589Z,26.18
2023-01-17T09:38:07.875Z,26.17
2023-01-17T09:40:56.642Z,26.28
2023-01-17T09:43:48.728Z,26.29
2023-01-17T09:46:40.963Z,26.35
2023-01-17T09:49:36.194Z,26.32
2023-01-17T09:52:26.380Z,26.37
2023-01-17T09:55:16.939Z,26.40
2023-01-17T09:58:08.565Z,26.39
2023-01-17T10:01:03.566Z,26.40
2023-01-17T10:04:03.017Z,26.38
2023-01-17T10:07:02.677Z,26.37
2023-01-17T10:10:05.206Z,26.15
2023-01-17T10:12:58.360Z,26.06
2023-01-17T10:16:05.946Z,26.04
2023-01-17T10:19:14.698Z,25.98
2023-01-17T10:22:16.581Z,26.02
2023-01-17T10:25:17.036Z,25.97
2023-01-17T10:28:11.003Z,26.01
2023-01-17T10:31:02.225Z,25.95
2023-01-17T10:33:53.681Z,25.93
2023-01-17T10:36:44.873Z,25.87
2023-01-17T10:39:33.858Z,25.91
2023-01-17T10:42:27.529Z,26.07
2023-01-17T10:45:19.018Z,25.79
2023-01-17T10:48:13.325Z,25.86
2023-01-17T10:51:08.005Z,26.03
2023-01-17T10:54:05.484Z,26.22
2023-01-17T10:56:54.145Z,26.29
2023-01-17T10:59:44.466Z,26.26
2023-01-17T11:02:39.950Z,26.29
2023-01-17T11:05:30.684Z,26.27
2023-01-17T11:08:21.981Z,26.29
2023-01-17T11:11:10.864Z,26.22
2023-01-17T11:14:01.691Z,26.15
2023-01-17T11:17:01.917Z,26.07
2023-01-17T11:19:51.290Z,26.01
2023-01-17T11:22:40.273Z,26.01
2023-01-17T11:25:29.217Z,26.02
2023-01-17T11:28:25.964Z,26.03
2023-01-17T11:31:35.228Z,26.02
2023-01-17T11:34:26.966Z,26.14
2023-01-17T11:37:20.297Z,26.12
2023-01-17T11:40:10.062Z,26.24
2023-01-17T11:43:05.651Z,26.28
2023-01-17T11:46:06.127Z,26.32
2023-01-17T11:48:56.463Z,26.35
2023-01-17T11:51:46.616Z,26.35
2023-01-17T11:54:39.469Z,26.36
2023-01-17T11:57:29.384Z,26.40
2023-01-17T12:00:21.901Z,26.42
2023-01-17T12:03:19.338Z,26.44
2023-01-17T12:06:12.514Z,26.44
2023-01-17T12:09:11.449Z,26.46
2023-01-17T12:12:23.473Z,26.44
2023-01-17T12:15:21.226Z,26.38
2023-01-17T12:18:20.898Z,26.33
2023-01-17T12:21:20.613Z,26.34
2023-01-17T12:24:26.212Z,26.30
2023-01-17T12:27:20.563Z,26.36
2023-01-17T12:30:17.793Z,26.37
2023-01-17T12:33:21.726Z,26.38
2023-01-17T12:36:17.616Z,26.40
2023-01-17T12:39:11.771Z,26.43
2023-01-17T12:42:05.417Z,26.43
2023-01-17T12:44:57.928Z,26.46
2023-01-17T12:47:49.285Z,26.40
2023-01-17T12:50:40.681Z,26.40
2023-01-17T12:53:33.296Z,26.44
2023-01-17T12:56:27.618Z,26.48
2023-01-17T12:59:21.692Z,26.43
2023-01-17T13:02:17.736Z,26.39
2023-01-17T13:05:10.753Z,26.47
2023-01-17T13:08:06.296Z,26.51
2023-01-17T13:10:58.489Z,26.50
2023-01-17T13:13:51.330Z,26.49
2023-01-17T13:16:45.567Z,26.50
2023-01-17T13:19:41.643Z,26.42
2023-01-17T13:22:30.603Z,26.43
2023-01-17T13:25:34.298Z,26.36
2023-01-17T13:28:30.868Z,26.42
2023-01-17T13:31:28.658Z,26.39
2023-01-17T13:34:30.343Z,26.44
2023-01-17T13:37:41.341Z,26.45
2023-01-17T13:40:34.023Z,26.41
2023-01-17T13:43:25.708Z,26.38
2023-01-17T13:46:14.269Z,26.34
2023-01-17T13:49:33.965Z,26.25
2023-01-17T13:52:33.521Z,26.31
2023-01-17T13:55:46.304Z,26.31
2023-01-17T13:58:58.678Z,26.26
2023-01-17T14:01:54.410Z,26.37
2023-01-17T14:05:12.109Z,26.39
2023-01-17T14:08:02.561Z,26.38
2023-01-17T14:10:52.032Z,26.31
2023-01-17T14:13:41.337Z,26.27
2023-01-17T14:16:31.363Z,26.26
2023-01-17T14:19:27.029Z,26.25
2023-01-17T14:22:24.584Z,26.24
2023-01-17T14:25:17.416Z,26.30
2023-01-17T14:28:08.497Z,26.31
2023-01-17T14:30:57.613Z,26.36
2023-01-17T14:33:46.378Z,26.43
2023-01-17T14:36:36.733Z,26.36
2023-01-17T14:39:26.839Z,26.15
2023-01-17T14:42:17.265Z,25.99
2023-01-17T14:45:07.503Z,25.93
2023-01-17T14:47:58.156Z,25.85
2023-01-17T14:50:48.627Z,25.75
2023-01-17T14:53:37.351Z,25.72
2023-01-17T14:56:28.277Z,25.77
2023-01-17T14:59:18.551Z,25.62
2023-01-17T15:02:12.994Z,25.73
2023-01-17T15:05:01.655Z,25.66
2023-01-17T15:07:53.045Z,25.68
2023-01-17T15:10:48.715Z,25.58
2023-01-17T15:13:44.624Z,25.55
2023-01-17T15:16:36.242Z,25.60
2023-01-17T15:19:24.992Z,25.59
2023-01-17T15:22:14.126Z,25.61
2023-01-17T15:25:02.932Z,25.62
2023-01-17T15:27:51.931Z,25.53
2023-01-17T15:31:02.209Z,25.55
2023-01-17T15:33:54.348Z,25.46
2023-01-17T15:36:43.132Z,25.59
2023-01-17T15:39:32.449Z,25.38
2023-01-17T15:42:24.040Z,25.27
2023-01-17T15:45:15.999Z,25.23
2023-01-17T15:48:40.507Z,25.15
2023-01-17T15:51:33.394Z,25.22
2023-01-17T15:54:26.839Z,25.28
2023-01-17T15:57:37.139Z,25.16
2023-01-17T16:00:32.486Z,25.32
2023-01-17T16:03:24.039Z,25.32
2023-01-17T16:06:30.734Z,25.30
2023-01-17T16:09:22.561Z,25.31
2023-01-17T16:12:11.272Z,25.36
2023-01-17T16:15:11.712Z,25.34
2023-01-17T16:18:04.717Z,25.26
2023-01-17T16:20:55.377Z,25.27
2023-01-17T16:23:45.404Z,25.31
2023-01-17T16:26:33.987Z,25.43
2023-01-17T16:29:22.972Z,25.48
2023-01-17T16:32:11.546Z,25.47
2023-01-17T16:35:00.276Z,25.45
2023-01-17T16:37:50.976Z,25.39
2023-01-17T16:40:43.817Z,25.53
2023-01-17T16:43:32.559Z,25.53
2023-01-17T16:46:23.626Z,25.73
2023-01-17T16:49:12.283Z,25.76
2023-01-17T16:52:01.295Z,25.68
2023-01-17T16:54:49.984Z,25.73
2023-01-17T16:57:40.162Z,25.77
2023-01-17T17:00:28.836Z,25.90
2023-01-17T17:03:18.162Z,25.92
2023-01-17T17:06:07.132Z,26.08
2023-01-17T17:08:55.886Z,26.13
2023-01-17T17:11:44.498Z,26.11
2023-01-17T17:14:34.616Z,26.16
2023-01-17T17:17:23.894Z,26.16
2023-01-17T17:20:14.204Z,26.18
2023-01-17T17:23:02.805Z,26.24
2023-01-17T17:25:57.077Z,26.24
2023-01-17T17:28:45.585Z,26.26
2023-01-17T17:31:36.377Z,26.31
2023-01-17T17:34:27.648Z,26.29
2023-01-17T17:37:16.895Z,26.26
2023-01-17T17:40:06.955Z,26.39
2023-01-17T17:42:55.702Z,26.52
2023-01-17T17:45:44.314Z,26.60
2023-01-17T17:48:34.474Z,26.56
2023-01-17T17:51:25.613Z,26.53
2023-01-17T17:54:15.867Z,26.65
2023-01-17T17:57:04.709Z,26.73
2023-01-17T17:59:56.049Z,26.73
2023-01-17T18:02:44.786Z,26.79
2023-01-17T18:05:34.825Z,26.71
2023-01-17T18:08:23.791Z,26.77
2023-01-17T18:11:14.976Z,26.72
2023-01-17T18:14:05.999Z,26.76
2023-01-17T18:16:54.722Z,26.79
2023-01-17T18:19:46.013Z,26.83
2023-01-17T18:22:36.039Z,26.83
2023-01-17T18:25:24.713Z,26.84
2023-01-17T18:28:13.327Z,26.83
2023-01-17T18:31:07.546Z,26.81
2023-01-17T18:33:56.996Z,26.84
2023-01-17T18:36:45.783Z,26.80
2023-01-17T18:39:35.868Z,26.81
2023-01-17T18:42:27.382Z,26.79
2023-01-17T18:45:16.218Z,26.79
2023-01-17T18:48:05.102Z,26.69
2023-01-17T18:50:57.623Z,26.76
2023-01-17T18:53:47.576Z,26.74
2023-01-17T18:56:37.594Z,26.71
2023-01-17T18:59:26.231Z,26.72
2023-01-17T19:02:15.631Z,26.64
2023-01-17T19:05:05.569Z,26.65
2023-01-17T19:07:56.821Z,26.66
2023-01-17T19:10:46.599Z,26.64
2023-01-17T19:13:37.954Z,26.67
2023-01-17T19:16:28.006Z,26.63
2023-01-17T19:19:17.695Z,26.62
2023-01-17T19:22:06.384Z,26.60
2023-01-17T19:24:55.102Z,26.60
2023-01-17T19:27:43.784Z,26.57
2023-01-17T19:30:34.302Z,26.58
2023-01-17T19:33:25.872Z,26.55
2023-01-17T19:36:17.068Z,26.52
2023-01-17T19:39:09.286Z,26.49
2023-01-17T19:41:57.924Z,26.49
2023-01-17T19:44:46.564Z,26.35
2023-01-17T19:47:36.697Z,26.38
2023-01-17T19:50:25.396Z,26.36
2023-01-17T19:53:14.126Z,26.35
2023-01-17T19:56:06.305Z,26.42
2023-01-17T19:58:57.084Z,26.40
2023-01-17T20:01:45.876Z,26.41
2023-01-17T20:04:35.965Z,26.40
2023-01-17T20:07:24.848Z,26.40
2023-01-17T20:10:13.553Z,26.40
2023-01-17T20:13:02.167Z,26.45
2023-01-17T20:15:50.788Z,26.44
2023-01-17T20:18:39.979Z,26.39
2023-01-17T20:21:31.031Z,26.39
2023-01-17T20:24:19.662Z,26.40
2023-01-17T20:27:08.303Z,26.36
2023-01-17T20:29:56.996Z,26.39
2023-01-17T20:32:46.013Z,26.41
2023-01-17T20:35:34.702Z,26.39
2023-01-17T20:38:27.345Z,26.39
2023-01-17T20:41:17.502Z,26.41
2023-01-17T20:44:07.604Z,26.38
2023-01-17T20:46:56.253Z,26.40
2023-01-17T20:49:44.863Z,26.36
2023-01-17T20:52:33.558Z,26.40
2023-01-17T20:55:24.297Z,26.40
2023-01-17T20:58:12.933Z,26.35
2023-01-17T21:01:01.833Z,26.32
2023-01-17T21:03:53.143Z,26.37
2023-01-17T21:06:42.892Z,26.19
2023-01-17T21:09:31.539Z,26.27
2023-01-17T21:12:22.605Z,26.25
2023-01-17T21:15:23.872Z,26.29
2023-01-17T21:18:12.788Z,26.27
2023-01-17T21:21:05.667Z,26.31
2023-01-17T21:23:57.313Z,26.33
2023-01-17T21:26:47.288Z,26.30
2023-01-17T21:29:40.815Z,26.25
2023-01-17T21:32:31.469Z,26.14
2023-01-17T21:35:20.981Z,26.31
2023-01-17T21:38:10.717Z,26.22
2023-01-17T21:41:02.853Z,26.19
2023-01-17T21:43:57.561Z,26.25
2023-01-17T21:46:48.440Z,26.29
2023-01-17T21:49:39.081Z,26.26
2023-01-17T21:52:34.268Z,26.10
2023-01-17T21:55:41.012Z,26.05
2023-01-17T21:58:46.099Z,26.19
2023-01-17T22:01:34.998Z,26.18
2023-01-17T22:04:25.623Z,26.06
2023-01-17T22:07:15.829Z,26.00
2023-01-17T22:10:04.756Z,25.95
2023-01-17T22:12:53.506Z,25.98
2023-01-17T22:15:43.758Z,25.89
2023-01-17T22:18:33.198Z,25.79
2023-01-17T22:21:24.669Z,25.82
2023-01-17T22:24:15.927Z,25.77
2023-01-17T22:27:04.546Z,25.70
2023-01-17T22:29:53.115Z,25.67
2023-01-17T22:32:41.886Z,25.63
2023-01-17T22:35:30.520Z,25.69
2023-01-17T22:38:20.950Z,25.64
2023-01-17T22:41:13.065Z,25.63
2023-01-17T22:44:03.162Z,25.62
2023-01-17T22:46:51.891Z,25.59
2023-01-17T22:49:41.103Z,25.57
2023-01-17T22:52:31.438Z,25.58
2023-01-17T22:55:23.120Z,25.58
2023-01-17T22:58:11.836Z,25.54
2023-01-17T23:01:05.938Z,25.55
2023-01-17T23:03:56.050Z,25.55
2023-01-17T23:06:45.071Z,25.54
2023-01-17T23:09:33.803Z,25.41
2023-01-17T23:12:23.995Z,25.52
2023-01-17T23:15:30.390Z,25.48
2023-01-17T23:18:36.868Z,25.45
2023-01-17T23:21:45.515Z,25.49
2023-01-17T23:24:34.100Z,25.41
2023-01-17T23:27:43.939Z,25.43
2023-01-17T23:30:35.504Z,25.40
2023-01-17T23:33:24.350Z,25.38
2023-01-17T23:36:13.185Z,25.36
2023-01-17T23:39:01.769Z,25.36
2023-01-17T23:42:08.195Z,25.32
2023-01-17T23:44:58.263Z,25.36
2023-01-17T23:47:46.911Z,25.39
2023-01-17T23:50:35.527Z,25.39
2023-01-17T23:53:24.205Z,25.40
2023-01-17T23:56:16.079Z,25.44
2023-01-17T23:59:05.756Z,25.42
